sensor_id;sensor_type;location;lat;lon;timestamp;P1;durP1;ratioP1;P2;durP2;ratioP2
21034;SDS011;10676;50.848;3.272;2022-08-11T00:02:50;20.60;;;19.05;;
21034;SDS011;10676;50.848;3.272;2022-08-11T00:05:17;19.55;;;17.65;;
21034;SDS011;10676;50.848;3.272;2022-08-11T00:07:52;25.15;;;23.13;;
21034;SDS011;10676;50.848;3.272;2022-08-11T00:10:24;20.88;;;18.73;;
21034;SDS011;10676;50.848;3.272;2022-08-11T00:12:52;17.30;;;15.73;;
21034;SDS011;10676;50.848;3.272;2022-08-11T00:15:27;17.92;;;16.25;;
21034;SDS011;10676;50.848;3.272;2022-08-11T00:18:03;16.15;;;13.15;;
21034;SDS011;10676;50.848;3.272;2022-08-11T00:20:30;24.17;;;22.25;;
21034;SDS011;10676;50.848;3.272;2022-08-11T00:23:30;15.75;;;14.25;;
21034;SDS011;10676;50.848;3.272;2022-08-11T00:25:50;15.43;;;13.77;;
21034;SDS011;10676;50.848;3.272;2022-08-11T00:28:23;17.88;;;15.60;;
21034;SDS011;10676;50.848;3.272;2022-08-11T00:30:52;25.50;;;15.27;;
21034;SDS011;10676;50.848;3.272;2022-08-11T00:33:20;20.15;;;16.75;;
21034;SDS011;10676;50.848;3.272;2022-08-11T00:35:56;19.30;;;17.02;;
21034;SDS011;10676;50.848;3.272;2022-08-11T00:38:24;16.25;;;14.55;;
21034;SDS011;10676;50.848;3.272;2022-08-11T00:46:17;18.95;;;16.95;;
21034;SDS011;10676;50.848;3.272;2022-08-11T00:54:42;21.42;;;19.63;;
21034;SDS011;10676;50.848;3.272;2022-08-11T00:57:29;27.13;;;19.58;;
21034;SDS011;10676;50.848;3.272;2022-08-11T01:00:22;19.80;;;17.73;;
21034;SDS011;10676;50.848;3.272;2022-08-11T01:22:18;20.75;;;17.25;;
21034;SDS011;10676;50.848;3.272;2022-08-11T01:30:16;19.50;;;17.65;;
21034;SDS011;10676;50.848;3.272;2022-08-11T01:45:52;17.77;;;15.32;;
21034;SDS011;10676;50.848;3.272;2022-08-11T01:48:54;18.08;;;15.88;;
21034;SDS011;10676;50.848;3.272;2022-08-11T01:51:36;17.48;;;15.68;;
21034;SDS011;10676;50.848;3.272;2022-08-11T01:54:30;17.98;;;16.10;;
21034;SDS011;10676;50.848;3.272;2022-08-11T02:00:06;17.83;;;16.02;;
21034;SDS011;10676;50.848;3.272;2022-08-11T02:07:57;20.65;;;17.25;;
21034;SDS011;10676;50.848;3.272;2022-08-11T02:15:55;18.42;;;16.55;;
21034;SDS011;10676;50.848;3.272;2022-08-11T02:18:33;22.42;;;18.33;;
21034;SDS011;10676;50.848;3.272;2022-08-11T02:21:23;26.27;;;17.98;;
21034;SDS011;10676;50.848;3.272;2022-08-11T02:24:16;20.60;;;17.27;;
21034;SDS011;10676;50.848;3.272;2022-08-11T02:26:59;18.10;;;16.40;;
21034;SDS011;10676;50.848;3.272;2022-08-11T02:29:41;19.70;;;16.83;;
21034;SDS011;10676;50.848;3.272;2022-08-11T02:35:49;22.13;;;16.80;;
21034;SDS011;10676;50.848;3.272;2022-08-11T02:38:04;18.25;;;16.25;;
21034;SDS011;10676;50.848;3.272;2022-08-11T02:41:24;19.55;;;17.33;;
21034;SDS011;10676;50.848;3.272;2022-08-11T02:47:02;18.35;;;16.45;;
21034;SDS011;10676;50.848;3.272;2022-08-11T02:49:43;20.38;;;16.58;;
21034;SDS011;10676;50.848;3.272;2022-08-11T02:52:33;20.88;;;16.63;;
21034;SDS011;10676;50.848;3.272;2022-08-11T02:55:13;19.35;;;17.27;;
21034;SDS011;10676;50.848;3.272;2022-08-11T02:57:53;23.50;;;21.13;;
21034;SDS011;10676;50.848;3.272;2022-08-11T03:00:27;27.15;;;23.73;;
21034;SDS011;10676;50.848;3.272;2022-08-11T03:05:57;25.25;;;22.30;;
21034;SDS011;10676;50.848;3.272;2022-08-11T03:08:44;24.05;;;21.65;;
21034;SDS011;10676;50.848;3.272;2022-08-11T03:11:21;22.85;;;20.70;;
21034;SDS011;10676;50.848;3.272;2022-08-11T03:14:48;26.05;;;23.50;;
21034;SDS011;10676;50.848;3.272;2022-08-11T03:29:06;23.23;;;18.60;;
21034;SDS011;10676;50.848;3.272;2022-08-11T03:32:36;21.73;;;19.63;;
21034;SDS011;10676;50.848;3.272;2022-08-11T03:34:47;23.20;;;20.98;;
21034;SDS011;10676;50.848;3.272;2022-08-11T03:37:25;23.75;;;21.27;;
21034;SDS011;10676;50.848;3.272;2022-08-11T03:46:03;23.55;;;21.25;;
21034;SDS011;10676;50.848;3.272;2022-08-11T04:04:53;24.20;;;21.77;;
21034;SDS011;10676;50.848;3.272;2022-08-11T04:46:05;25.50;;;21.58;;
21034;SDS011;10676;50.848;3.272;2022-08-11T04:48:48;23.60;;;21.40;;
21034;SDS011;10676;50.848;3.272;2022-08-11T04:55:39;20.05;;;17.75;;
21034;SDS011;10676;50.848;3.272;2022-08-11T05:01:26;18.63;;;16.70;;
21034;SDS011;10676;50.848;3.272;2022-08-11T05:15:53;18.73;;;13.90;;
21034;SDS011;10676;50.848;3.272;2022-08-11T05:21:32;15.68;;;14.05;;
21034;SDS011;10676;50.848;3.272;2022-08-11T05:24:30;16.42;;;13.23;;
21034;SDS011;10676;50.848;3.272;2022-08-11T05:27:19;17.70;;;14.23;;
21034;SDS011;10676;50.848;3.272;2022-08-11T05:30:08;14.93;;;13.27;;
21034;SDS011;10676;50.848;3.272;2022-08-11T05:36:44;16.48;;;14.77;;
21034;SDS011;10676;50.848;3.272;2022-08-11T05:39:22;18.63;;;16.77;;
21034;SDS011;10676;50.848;3.272;2022-08-11T05:42:09;19.50;;;16.88;;
21034;SDS011;10676;50.848;3.272;2022-08-11T05:44:56;18.77;;;15.02;;
21034;SDS011;10676;50.848;3.272;2022-08-11T05:47:44;21.33;;;19.60;;
21034;SDS011;10676;50.848;3.272;2022-08-11T05:50:31;37.28;;;28.48;;
21034;SDS011;10676;50.848;3.272;2022-08-11T05:53:16;24.15;;;22.40;;
21034;SDS011;10676;50.848;3.272;2022-08-11T05:56:04;20.45;;;18.33;;
21034;SDS011;10676;50.848;3.272;2022-08-11T05:58:53;20.42;;;18.77;;
21034;SDS011;10676;50.848;3.272;2022-08-11T06:01:25;22.52;;;20.42;;
21034;SDS011;10676;50.848;3.272;2022-08-11T06:03:54;22.95;;;20.30;;
21034;SDS011;10676;50.848;3.272;2022-08-11T06:06:40;20.52;;;18.92;;
21034;SDS011;10676;50.848;3.272;2022-08-11T06:09:19;23.63;;;21.15;;
21034;SDS011;10676;50.848;3.272;2022-08-11T06:11:50;26.17;;;24.10;;
21034;SDS011;10676;50.848;3.272;2022-08-11T06:14:17;25.63;;;23.67;;
21034;SDS011;10676;50.848;3.272;2022-08-11T06:16:47;26.38;;;24.38;;
21034;SDS011;10676;50.848;3.272;2022-08-11T06:19:14;23.92;;;21.80;;
21034;SDS011;10676;50.848;3.272;2022-08-11T06:21:44;21.88;;;20.15;;
21034;SDS011;10676;50.848;3.272;2022-08-11T06:24:12;21.40;;;19.33;;
21034;SDS011;10676;50.848;3.272;2022-08-11T06:26:39;22.23;;;19.85;;
21034;SDS011;10676;50.848;3.272;2022-08-11T06:29:11;21.10;;;17.65;;
21034;SDS011;10676;50.848;3.272;2022-08-11T06:31:42;20.65;;;18.98;;
21034;SDS011;10676;50.848;3.272;2022-08-11T06:37:22;18.98;;;16.65;;
21034;SDS011;10676;50.848;3.272;2022-08-11T06:47:56;17.48;;;15.75;;
21034;SDS011;10676;50.848;3.272;2022-08-11T06:50:27;16.45;;;14.77;;
21034;SDS011;10676;50.848;3.272;2022-08-11T06:53:14;16.30;;;14.75;;
21034;SDS011;10676;50.848;3.272;2022-08-11T06:55:43;16.50;;;14.57;;
21034;SDS011;10676;50.848;3.272;2022-08-11T06:58:39;17.08;;;15.65;;
21034;SDS011;10676;50.848;3.272;2022-08-11T07:07:19;16.80;;;15.10;;
21034;SDS011;10676;50.848;3.272;2022-08-11T07:13:53;15.68;;;13.77;;
21034;SDS011;10676;50.848;3.272;2022-08-11T07:16:44;14.88;;;13.73;;
21034;SDS011;10676;50.848;3.272;2022-08-11T07:19:13;14.40;;;13.02;;
21034;SDS011;10676;50.848;3.272;2022-08-11T07:22:02;15.73;;;14.32;;
21034;SDS011;10676;50.848;3.272;2022-08-11T07:28:04;16.13;;;13.55;;
21034;SDS011;10676;50.848;3.272;2022-08-11T07:30:54;15.10;;;13.70;;
21034;SDS011;10676;50.848;3.272;2022-08-11T07:33:43;16.52;;;15.25;;
21034;SDS011;10676;50.848;3.272;2022-08-11T07:36:11;14.65;;;13.20;;
21034;SDS011;10676;50.848;3.272;2022-08-11T07:38:40;12.75;;;11.65;;
21034;SDS011;10676;50.848;3.272;2022-08-11T07:41:16;12.88;;;11.40;;
21034;SDS011;10676;50.848;3.272;2022-08-11T07:43:44;14.18;;;10.88;;
21034;SDS011;10676;50.848;3.272;2022-08-11T07:46:15;15.50;;;11.32;;
21034;SDS011;10676;50.848;3.272;2022-08-11T07:49:00;11.98;;;10.75;;
21034;SDS011;10676;50.848;3.272;2022-08-11T07:51:46;14.60;;;11.18;;
21034;SDS011;10676;50.848;3.272;2022-08-11T07:54:31;11.50;;;10.23;;
21034;SDS011;10676;50.848;3.272;2022-08-11T07:56:58;13.68;;;9.70;;
21034;SDS011;10676;50.848;3.272;2022-08-11T07:59:24;11.93;;;10.90;;
21034;SDS011;10676;50.848;3.272;2022-08-11T08:02:10;12.25;;;11.07;;
21034;SDS011;10676;50.848;3.272;2022-08-11T08:04:56;12.55;;;11.25;;
21034;SDS011;10676;50.848;3.272;2022-08-11T08:07:41;12.50;;;10.23;;
21034;SDS011;10676;50.848;3.272;2022-08-11T08:10:26;11.27;;;9.95;;
21034;SDS011;10676;50.848;3.272;2022-08-11T08:13:13;9.80;;;9.02;;
21034;SDS011;10676;50.848;3.272;2022-08-11T08:15:58;9.80;;;9.18;;
21034;SDS011;10676;50.848;3.272;2022-08-11T08:18:43;11.32;;;9.73;;
21034;SDS011;10676;50.848;3.272;2022-08-11T08:21:08;12.57;;;9.35;;
21034;SDS011;10676;50.848;3.272;2022-08-11T08:23:39;9.85;;;9.00;;
21034;SDS011;10676;50.848;3.272;2022-08-11T08:26:12;10.15;;;9.23;;
21034;SDS011;10676;50.848;3.272;2022-08-11T08:28:59;12.27;;;9.45;;
21034;SDS011;10676;50.848;3.272;2022-08-11T08:31:46;14.00;;;9.18;;
21034;SDS011;10676;50.848;3.272;2022-08-11T08:34:13;8.93;;;8.15;;
21034;SDS011;10676;50.848;3.272;2022-08-11T08:36:46;11.85;;;9.75;;
21034;SDS011;10676;50.848;3.272;2022-08-11T08:39:14;9.60;;;8.70;;
21034;SDS011;10676;50.848;3.272;2022-08-11T08:41:45;11.98;;;8.48;;
21034;SDS011;10676;50.848;3.272;2022-08-11T08:44:16;9.98;;;9.10;;
21034;SDS011;10676;50.848;3.272;2022-08-11T08:46:46;9.38;;;8.50;;
21034;SDS011;10676;50.848;3.272;2022-08-11T08:49:15;9.70;;;8.30;;
21034;SDS011;10676;50.848;3.272;2022-08-11T08:51:48;13.10;;;7.85;;
21034;SDS011;10676;50.848;3.272;2022-08-11T08:54:22;9.00;;;7.70;;
21034;SDS011;10676;50.848;3.272;2022-08-11T08:56:54;10.40;;;7.88;;
21034;SDS011;10676;50.848;3.272;2022-08-11T08:59:21;10.55;;;8.02;;
21034;SDS011;10676;50.848;3.272;2022-08-11T09:01:54;12.63;;;7.88;;
21034;SDS011;10676;50.848;3.272;2022-08-11T09:04:24;8.38;;;7.57;;
21034;SDS011;10676;50.848;3.272;2022-08-11T09:06:51;9.00;;;7.10;;
21034;SDS011;10676;50.848;3.272;2022-08-11T09:09:21;8.68;;;7.80;;
21034;SDS011;10676;50.848;3.272;2022-08-11T09:11:48;7.72;;;7.00;;
21034;SDS011;10676;50.848;3.272;2022-08-11T09:14:19;9.20;;;8.25;;
21034;SDS011;10676;50.848;3.272;2022-08-11T09:17:09;8.57;;;7.85;;
21034;SDS011;10676;50.848;3.272;2022-08-11T09:19:36;9.48;;;8.63;;
21034;SDS011;10676;50.848;3.272;2022-08-11T09:22:02;10.93;;;7.75;;
21034;SDS011;10676;50.848;3.272;2022-08-11T09:24:47;12.20;;;8.90;;
21034;SDS011;10676;50.848;3.272;2022-08-11T09:27:33;10.93;;;9.23;;
21034;SDS011;10676;50.848;3.272;2022-08-11T09:30:03;10.77;;;9.30;;
21034;SDS011;10676;50.848;3.272;2022-08-11T09:32:30;9.10;;;8.30;;
21034;SDS011;10676;50.848;3.272;2022-08-11T09:34:57;9.18;;;8.48;;
21034;SDS011;10676;50.848;3.272;2022-08-11T09:37:25;11.95;;;9.10;;
21034;SDS011;10676;50.848;3.272;2022-08-11T09:40:12;9.77;;;8.98;;
21034;SDS011;10676;50.848;3.272;2022-08-11T09:42:55;10.95;;;9.10;;
21034;SDS011;10676;50.848;3.272;2022-08-11T09:45:52;9.07;;;8.20;;
21034;SDS011;10676;50.848;3.272;2022-08-11T09:48:24;9.52;;;8.75;;
21034;SDS011;10676;50.848;3.272;2022-08-11T09:50:54;10.10;;;9.40;;
21034;SDS011;10676;50.848;3.272;2022-08-11T09:53:24;10.57;;;9.10;;
21034;SDS011;10676;50.848;3.272;2022-08-11T09:55:51;10.50;;;9.13;;
21034;SDS011;10676;50.848;3.272;2022-08-11T09:58:17;10.88;;;9.77;;
21034;SDS011;10676;50.848;3.272;2022-08-11T10:00:46;10.23;;;9.50;;
21034;SDS011;10676;50.848;3.272;2022-08-11T10:03:17;11.60;;;9.40;;
21034;SDS011;10676;50.848;3.272;2022-08-11T10:05:47;11.68;;;8.50;;
21034;SDS011;10676;50.848;3.272;2022-08-11T10:08:46;10.02;;;9.32;;
21034;SDS011;10676;50.848;3.272;2022-08-11T10:11:17;10.82;;;10.13;;
21034;SDS011;10676;50.848;3.272;2022-08-11T10:13:47;11.07;;;10.05;;
21034;SDS011;10676;50.848;3.272;2022-08-11T10:16:36;10.27;;;9.57;;
21034;SDS011;10676;50.848;3.272;2022-08-11T10:19:05;9.82;;;8.98;;
21034;SDS011;10676;50.848;3.272;2022-08-11T10:24:09;9.95;;;8.98;;
21034;SDS011;10676;50.848;3.272;2022-08-11T10:26:54;9.32;;;8.63;;
21034;SDS011;10676;50.848;3.272;2022-08-11T10:29:27;10.25;;;9.45;;
21034;SDS011;10676;50.848;3.272;2022-08-11T10:32:16;9.65;;;8.68;;
21034;SDS011;10676;50.848;3.272;2022-08-11T10:35:04;9.65;;;8.90;;
21034;SDS011;10676;50.848;3.272;2022-08-11T10:37:33;9.55;;;8.70;;
21034;SDS011;10676;50.848;3.272;2022-08-11T10:40:01;10.73;;;8.27;;
21034;SDS011;10676;50.848;3.272;2022-08-11T10:42:29;9.23;;;8.48;;
21034;SDS011;10676;50.848;3.272;2022-08-11T10:45:14;8.98;;;8.27;;
21034;SDS011;10676;50.848;3.272;2022-08-11T10:47:59;9.50;;;8.68;;
21034;SDS011;10676;50.848;3.272;2022-08-11T10:50:28;10.27;;;8.52;;
21034;SDS011;10676;50.848;3.272;2022-08-11T10:53:13;9.73;;;8.80;;
21034;SDS011;10676;50.848;3.272;2022-08-11T10:55:58;10.50;;;9.70;;
21034;SDS011;10676;50.848;3.272;2022-08-11T10:58:44;9.40;;;8.80;;
21034;SDS011;10676;50.848;3.272;2022-08-11T11:03:51;8.88;;;8.27;;
21034;SDS011;10676;50.848;3.272;2022-08-11T11:06:24;8.85;;;8.20;;
21034;SDS011;10676;50.848;3.272;2022-08-11T11:08:52;10.07;;;9.15;;
21034;SDS011;10676;50.848;3.272;2022-08-11T11:11:27;12.85;;;9.25;;
21034;SDS011;10676;50.848;3.272;2022-08-11T11:14:17;8.60;;;8.10;;
21034;SDS011;10676;50.848;3.272;2022-08-11T11:17:04;9.13;;;8.35;;
21034;SDS011;10676;50.848;3.272;2022-08-11T11:19:37;10.02;;;7.53;;
21034;SDS011;10676;50.848;3.272;2022-08-11T11:22:04;9.13;;;8.32;;
21034;SDS011;10676;50.848;3.272;2022-08-11T11:27:48;9.15;;;8.35;;
21034;SDS011;10676;50.848;3.272;2022-08-11T11:30:15;8.38;;;7.57;;
21034;SDS011;10676;50.848;3.272;2022-08-11T11:33:01;9.63;;;8.57;;
21034;SDS011;10676;50.848;3.272;2022-08-11T11:35:38;9.20;;;8.32;;
21034;SDS011;10676;50.848;3.272;2022-08-11T11:38:13;10.20;;;8.57;;
21034;SDS011;10676;50.848;3.272;2022-08-11T11:40:42;9.90;;;7.63;;
21034;SDS011;10676;50.848;3.272;2022-08-11T11:43:08;8.52;;;7.93;;
21034;SDS011;10676;50.848;3.272;2022-08-11T11:45:35;8.35;;;7.75;;
21034;SDS011;10676;50.848;3.272;2022-08-11T11:48:01;8.32;;;7.50;;
21034;SDS011;10676;50.848;3.272;2022-08-11T11:50:28;8.65;;;7.97;;
21034;SDS011;10676;50.848;3.272;2022-08-11T11:52:58;9.50;;;8.70;;
21034;SDS011;10676;50.848;3.272;2022-08-11T11:55:25;8.02;;;7.53;;
21034;SDS011;10676;50.848;3.272;2022-08-11T11:57:53;8.32;;;7.70;;
21034;SDS011;10676;50.848;3.272;2022-08-11T12:00:40;8.82;;;8.00;;
21034;SDS011;10676;50.848;3.272;2022-08-11T12:03:26;8.40;;;7.82;;
21034;SDS011;10676;50.848;3.272;2022-08-11T12:05:53;8.85;;;7.78;;
21034;SDS011;10676;50.848;3.272;2022-08-11T12:08:20;8.30;;;7.50;;
21034;SDS011;10676;50.848;3.272;2022-08-11T12:13:39;9.23;;;8.57;;
21034;SDS011;10676;50.848;3.272;2022-08-11T12:16:07;9.13;;;8.40;;
21034;SDS011;10676;50.848;3.272;2022-08-11T12:18:34;8.95;;;8.25;;
21034;SDS011;10676;50.848;3.272;2022-08-11T12:21:01;9.82;;;8.93;;
21034;SDS011;10676;50.848;3.272;2022-08-11T12:23:28;9.60;;;8.02;;
21034;SDS011;10676;50.848;3.272;2022-08-11T12:26:14;9.68;;;8.30;;
21034;SDS011;10676;50.848;3.272;2022-08-11T12:29:00;8.68;;;7.95;;
21034;SDS011;10676;50.848;3.272;2022-08-11T12:31:29;9.20;;;8.50;;
21034;SDS011;10676;50.848;3.272;2022-08-11T12:34:00;8.95;;;8.40;;
21034;SDS011;10676;50.848;3.272;2022-08-11T12:36:26;8.80;;;8.05;;
21034;SDS011;10676;50.848;3.272;2022-08-11T12:38:53;9.60;;;8.00;;
21034;SDS011;10676;50.848;3.272;2022-08-11T12:41:19;8.57;;;7.70;;
21034;SDS011;10676;50.848;3.272;2022-08-11T12:44:04;8.32;;;7.68;;
21034;SDS011;10676;50.848;3.272;2022-08-11T12:46:53;9.05;;;8.48;;
21034;SDS011;10676;50.848;3.272;2022-08-11T12:49:22;8.82;;;7.95;;
21034;SDS011;10676;50.848;3.272;2022-08-11T12:52:07;8.68;;;7.97;;
21034;SDS011;10676;50.848;3.272;2022-08-11T12:54:55;9.27;;;8.65;;
21034;SDS011;10676;50.848;3.272;2022-08-11T13:00:31;9.25;;;8.68;;
21034;SDS011;10676;50.848;3.272;2022-08-11T13:03:17;8.45;;;7.72;;
21034;SDS011;10676;50.848;3.272;2022-08-11T13:06:03;8.18;;;7.68;;
21034;SDS011;10676;50.848;3.272;2022-08-11T13:08:30;8.57;;;7.85;;
21034;SDS011;10676;50.848;3.272;2022-08-11T13:10:59;8.60;;;7.80;;
21034;SDS011;10676;50.848;3.272;2022-08-11T13:13:45;9.38;;;8.57;;
21034;SDS011;10676;50.848;3.272;2022-08-11T13:16:12;9.73;;;9.02;;
21034;SDS011;10676;50.848;3.272;2022-08-11T13:18:39;8.73;;;7.90;;
21034;SDS011;10676;50.848;3.272;2022-08-11T13:21:07;7.90;;;7.10;;
21034;SDS011;10676;50.848;3.272;2022-08-11T13:23:36;7.93;;;7.43;;
21034;SDS011;10676;50.848;3.272;2022-08-11T13:26:04;8.77;;;7.03;;
21034;SDS011;10676;50.848;3.272;2022-08-11T13:28:33;8.48;;;7.63;;
21034;SDS011;10676;50.848;3.272;2022-08-11T13:31:00;8.95;;;8.45;;
21034;SDS011;10676;50.848;3.272;2022-08-11T13:33:42;10.23;;;8.88;;
21034;SDS011;10676;50.848;3.272;2022-08-11T13:36:10;9.63;;;8.93;;
21034;SDS011;10676;50.848;3.272;2022-08-11T13:38:40;9.60;;;8.80;;
21034;SDS011;10676;50.848;3.272;2022-08-11T13:41:07;9.23;;;8.63;;
21034;SDS011;10676;50.848;3.272;2022-08-11T13:43:53;9.23;;;8.32;;
21034;SDS011;10676;50.848;3.272;2022-08-11T13:46:21;9.20;;;8.55;;
21034;SDS011;10676;50.848;3.272;2022-08-11T13:48:53;10.30;;;9.50;;
21034;SDS011;10676;50.848;3.272;2022-08-11T13:51:20;9.95;;;9.23;;
21034;SDS011;10676;50.848;3.272;2022-08-11T13:53:54;10.15;;;9.25;;
21034;SDS011;10676;50.848;3.272;2022-08-11T13:56:25;10.50;;;9.63;;
21034;SDS011;10676;50.848;3.272;2022-08-11T13:58:51;10.90;;;10.00;;
21034;SDS011;10676;50.848;3.272;2022-08-11T14:01:19;10.27;;;9.32;;
21034;SDS011;10676;50.848;3.272;2022-08-11T14:03:47;9.90;;;8.98;;
21034;SDS011;10676;50.848;3.272;2022-08-11T14:06:14;9.50;;;8.80;;
21034;SDS011;10676;50.848;3.272;2022-08-11T14:08:43;10.93;;;10.02;;
21034;SDS011;10676;50.848;3.272;2022-08-11T14:11:10;10.15;;;9.35;;
21034;SDS011;10676;50.848;3.272;2022-08-11T14:13:55;10.30;;;9.60;;
21034;SDS011;10676;50.848;3.272;2022-08-11T14:16:27;10.27;;;9.35;;
21034;SDS011;10676;50.848;3.272;2022-08-11T14:19:03;10.18;;;9.43;;
21034;SDS011;10676;50.848;3.272;2022-08-11T14:21:33;10.48;;;9.70;;
21034;SDS011;10676;50.848;3.272;2022-08-11T14:24:20;10.10;;;9.30;;
21034;SDS011;10676;50.848;3.272;2022-08-11T14:26:48;9.50;;;8.52;;
21034;SDS011;10676;50.848;3.272;2022-08-11T14:29:19;9.90;;;9.05;;
21034;SDS011;10676;50.848;3.272;2022-08-11T14:31:47;10.10;;;9.30;;
21034;SDS011;10676;50.848;3.272;2022-08-11T14:34:17;9.57;;;8.75;;
21034;SDS011;10676;50.848;3.272;2022-08-11T14:36:48;9.18;;;8.63;;
21034;SDS011;10676;50.848;3.272;2022-08-11T14:39:17;10.10;;;9.05;;
21034;SDS011;10676;50.848;3.272;2022-08-11T14:41:46;9.25;;;8.52;;
21034;SDS011;10676;50.848;3.272;2022-08-11T14:44:33;10.00;;;8.75;;
21034;SDS011;10676;50.848;3.272;2022-08-11T14:47:19;9.82;;;9.27;;
21034;SDS011;10676;50.848;3.272;2022-08-11T14:49:46;9.75;;;9.10;;
21034;SDS011;10676;50.848;3.272;2022-08-11T14:52:13;10.65;;;9.52;;
21034;SDS011;10676;50.848;3.272;2022-08-11T14:54:45;10.93;;;9.93;;
21034;SDS011;10676;50.848;3.272;2022-08-11T14:57:32;9.98;;;9.02;;
21034;SDS011;10676;50.848;3.272;2022-08-11T15:00:02;10.57;;;9.73;;
21034;SDS011;10676;50.848;3.272;2022-08-11T15:02:30;10.98;;;10.05;;
21034;SDS011;10676;50.848;3.272;2022-08-11T15:05:16;10.90;;;10.10;;
21034;SDS011;10676;50.848;3.272;2022-08-11T15:07:43;10.45;;;9.75;;
21034;SDS011;10676;50.848;3.272;2022-08-11T15:10:10;11.50;;;10.57;;
21034;SDS011;10676;50.848;3.272;2022-08-11T15:12:38;10.70;;;9.85;;
21034;SDS011;10676;50.848;3.272;2022-08-11T15:15:06;11.05;;;10.13;;
21034;SDS011;10676;50.848;3.272;2022-08-11T15:17:53;10.05;;;9.48;;
21034;SDS011;10676;50.848;3.272;2022-08-11T15:20:20;10.65;;;9.95;;
21034;SDS011;10676;50.848;3.272;2022-08-11T15:23:07;10.30;;;9.48;;
21034;SDS011;10676;50.848;3.272;2022-08-11T15:25:52;10.95;;;10.02;;
21034;SDS011;10676;50.848;3.272;2022-08-11T15:28:24;10.65;;;9.82;;
21034;SDS011;10676;50.848;3.272;2022-08-11T15:31:10;10.70;;;9.98;;
21034;SDS011;10676;50.848;3.272;2022-08-11T15:33:52;10.05;;;9.45;;
21034;SDS011;10676;50.848;3.272;2022-08-11T15:36:39;11.27;;;10.43;;
21034;SDS011;10676;50.848;3.272;2022-08-11T15:39:29;11.48;;;10.52;;
21034;SDS011;10676;50.848;3.272;2022-08-11T15:44:58;10.23;;;9.65;;
21034;SDS011;10676;50.848;3.272;2022-08-11T15:47:54;11.73;;;10.75;;
21034;SDS011;10676;50.848;3.272;2022-08-11T15:50:24;12.32;;;11.55;;
21034;SDS011;10676;50.848;3.272;2022-08-11T15:52:58;11.57;;;10.77;;
21034;SDS011;10676;50.848;3.272;2022-08-11T15:55:31;11.32;;;10.50;;
21034;SDS011;10676;50.848;3.272;2022-08-11T15:58:00;11.48;;;10.75;;
21034;SDS011;10676;50.848;3.272;2022-08-11T16:00:46;11.75;;;10.90;;
21034;SDS011;10676;50.848;3.272;2022-08-11T16:03:55;12.15;;;11.35;;
21034;SDS011;10676;50.848;3.272;2022-08-11T16:06:47;11.75;;;10.93;;
21034;SDS011;10676;50.848;3.272;2022-08-11T16:09:13;13.25;;;11.60;;
21034;SDS011;10676;50.848;3.272;2022-08-11T16:11:42;10.90;;;10.05;;
21034;SDS011;10676;50.848;3.272;2022-08-11T16:14:10;12.98;;;11.93;;
21034;SDS011;10676;50.848;3.272;2022-08-11T16:16:56;12.65;;;11.63;;
21034;SDS011;10676;50.848;3.272;2022-08-11T16:19:23;13.13;;;11.90;;
21034;SDS011;10676;50.848;3.272;2022-08-11T16:21:54;12.35;;;11.55;;
21034;SDS011;10676;50.848;3.272;2022-08-11T16:24:20;12.32;;;11.48;;
21034;SDS011;10676;50.848;3.272;2022-08-11T16:26:48;12.10;;;11.30;;
21034;SDS011;10676;50.848;3.272;2022-08-11T16:29:16;11.98;;;11.18;;
21034;SDS011;10676;50.848;3.272;2022-08-11T16:31:43;12.75;;;11.95;;
21034;SDS011;10676;50.848;3.272;2022-08-11T16:34:30;13.05;;;11.98;;
21034;SDS011;10676;50.848;3.272;2022-08-11T16:37:17;12.25;;;11.10;;
21034;SDS011;10676;50.848;3.272;2022-08-11T16:40:02;14.07;;;13.10;;
21034;SDS011;10676;50.848;3.272;2022-08-11T16:42:29;14.57;;;13.55;;
21034;SDS011;10676;50.848;3.272;2022-08-11T16:45:14;14.57;;;13.30;;
21034;SDS011;10676;50.848;3.272;2022-08-11T16:47:59;12.77;;;11.70;;
21034;SDS011;10676;50.848;3.272;2022-08-11T16:50:26;15.02;;;13.93;;
21034;SDS011;10676;50.848;3.272;2022-08-11T16:52:54;14.32;;;13.32;;
21034;SDS011;10676;50.848;3.272;2022-08-11T16:55:19;14.15;;;13.25;;
21034;SDS011;10676;50.848;3.272;2022-08-11T16:57:45;14.43;;;13.23;;
21034;SDS011;10676;50.848;3.272;2022-08-11T17:00:30;12.55;;;11.75;;
21034;SDS011;10676;50.848;3.272;2022-08-11T17:02:57;15.10;;;12.15;;
21034;SDS011;10676;50.848;3.272;2022-08-11T17:05:50;13.35;;;12.45;;
21034;SDS011;10676;50.848;3.272;2022-08-11T17:08:36;13.98;;;12.88;;
21034;SDS011;10676;50.848;3.272;2022-08-11T17:11:30;15.20;;;13.98;;
21034;SDS011;10676;50.848;3.272;2022-08-11T17:14:20;13.65;;;12.60;;
21034;SDS011;10676;50.848;3.272;2022-08-11T17:16:49;26.83;;;24.73;;
21034;SDS011;10676;50.848;3.272;2022-08-11T17:19:17;30.00;;;27.45;;
21034;SDS011;10676;50.848;3.272;2022-08-11T17:21:50;17.42;;;15.93;;
21034;SDS011;10676;50.848;3.272;2022-08-11T17:24:39;15.98;;;14.88;;
21034;SDS011;10676;50.848;3.272;2022-08-11T17:27:07;15.85;;;14.57;;
21034;SDS011;10676;50.848;3.272;2022-08-11T17:29:39;16.70;;;15.55;;
21034;SDS011;10676;50.848;3.272;2022-08-11T17:32:12;17.75;;;16.65;;
21034;SDS011;10676;50.848;3.272;2022-08-11T17:35:00;16.10;;;15.20;;
21034;SDS011;10676;50.848;3.272;2022-08-11T17:37:48;16.27;;;15.38;;
21034;SDS011;10676;50.848;3.272;2022-08-11T17:40:16;16.63;;;15.50;;
21034;SDS011;10676;50.848;3.272;2022-08-11T17:42:48;17.48;;;16.25;;
21034;SDS011;10676;50.848;3.272;2022-08-11T17:45:36;18.20;;;17.15;;
21034;SDS011;10676;50.848;3.272;2022-08-11T17:48:22;18.90;;;17.38;;
21034;SDS011;10676;50.848;3.272;2022-08-11T17:50:52;25.92;;;24.40;;
21034;SDS011;10676;50.848;3.272;2022-08-11T17:53:23;22.75;;;21.10;;
21034;SDS011;10676;50.848;3.272;2022-08-11T17:56:09;22.85;;;21.35;;
21034;SDS011;10676;50.848;3.272;2022-08-11T17:58:55;23.00;;;21.50;;
21034;SDS011;10676;50.848;3.272;2022-08-11T18:01:41;22.75;;;21.55;;
21034;SDS011;10676;50.848;3.272;2022-08-11T18:04:08;25.00;;;23.40;;
21034;SDS011;10676;50.848;3.272;2022-08-11T18:06:35;26.30;;;24.70;;
21034;SDS011;10676;50.848;3.272;2022-08-11T18:09:05;1999.90;;;999.90;;
21034;SDS011;10676;50.848;3.272;2022-08-11T18:11:54;1999.90;;;999.90;;
21034;SDS011;10676;50.848;3.272;2022-08-11T18:14:39;1999.90;;;999.90;;
21034;SDS011;10676;50.848;3.272;2022-08-11T18:17:27;1999.90;;;999.90;;
21034;SDS011;10676;50.848;3.272;2022-08-11T18:20:11;1999.90;;;999.90;;
21034;SDS011;10676;50.848;3.272;2022-08-11T18:22:56;1999.90;;;999.90;;
21034;SDS011;10676;50.848;3.272;2022-08-11T18:25:44;1999.90;;;999.90;;
21034;SDS011;10676;50.848;3.272;2022-08-11T18:28:31;1999.90;;;999.90;;
21034;SDS011;10676;50.848;3.272;2022-08-11T18:31:21;1999.90;;;999.90;;
21034;SDS011;10676;50.848;3.272;2022-08-11T18:34:09;1999.90;;;999.90;;
21034;SDS011;10676;50.848;3.272;2022-08-11T18:39:46;1999.90;;;999.90;;
21034;SDS011;10676;50.848;3.272;2022-08-11T18:42:43;1999.90;;;999.90;;
21034;SDS011;10676;50.848;3.272;2022-08-11T18:45:30;1999.90;;;999.90;;
21034;SDS011;10676;50.848;3.272;2022-08-11T18:48:18;1999.90;;;999.90;;
21034;SDS011;10676;50.848;3.272;2022-08-11T18:51:05;1999.90;;;999.90;;
21034;SDS011;10676;50.848;3.272;2022-08-11T18:53:53;1999.90;;;999.90;;
21034;SDS011;10676;50.848;3.272;2022-08-11T18:56:42;1999.90;;;999.90;;
21034;SDS011;10676;50.848;3.272;2022-08-11T18:59:30;1999.90;;;999.90;;
21034;SDS011;10676;50.848;3.272;2022-08-11T19:02:20;1999.90;;;999.90;;